sensor_id;sensor_type;location;lat;lon;timestamp;temperature;humidity
11399;DHT22;5755;48.116;11.608;2024-03-02T07:28:44;8.10;99.90
11399;DHT22;5755;48.116;11.608;2024-03-02T07:31:12;7.90;99.90
11399;DHT22;5755;48.116;11.608;2024-03-02T07:43:27;7.50;99.90
11399;DHT22;5755;48.116;11.608;2024-03-02T07:49:48;7.50;99.90
11399;DHT22;5755;48.116;11.608;2024-03-02T08:06:26;9.20;96.80
11399;DHT22;5755;48.116;11.608;2024-03-02T08:08:54;9.30;97.40
11399;DHT22;5755;48.116;11.608;2024-03-02T08:11:52;9.40;96.50
11399;DHT22;5755;48.116;11.608;2024-03-02T08:14:35;9.30;96.70
11399;DHT22;5755;48.116;11.608;2024-03-02T08:17:22;9.50;96.80
11399;DHT22;5755;48.116;11.608;2024-03-02T08:20:21;9.70;96.00
11399;DHT22;5755;48.116;11.608;2024-03-02T08:26:04;9.60;95.50
11399;DHT22;5755;48.116;11.608;2024-03-02T08:28:55;9.50;95.70
11399;DHT22;5755;48.116;11.608;2024-03-02T08:31:44;9.30;96.00
11399;DHT22;5755;48.116;11.608;2024-03-02T08:51:44;9.40;96.50
11399;DHT22;5755;48.116;11.608;2024-03-02T08:54:19;9.80;96.30
11399;DHT22;5755;48.116;11.608;2024-03-02T09:09:41;11.10;90.50
11399;DHT22;5755;48.116;11.608;2024-03-02T09:12:08;11.40;89.00
11399;DHT22;5755;48.116;11.608;2024-03-02T09:14:36;11.80;86.10
11399;DHT22;5755;48.116;11.608;2024-03-02T09:17:03;12.30;84.30
11399;DHT22;5755;48.116;11.608;2024-03-02T09:19:30;13.20;77.80
11399;DHT22;5755;48.116;11.608;2024-03-02T09:21:57;13.80;66.80
11399;DHT22;5755;48.116;11.608;2024-03-02T09:24:24;13.90;63.10
11399;DHT22;5755;48.116;11.608;2024-03-02T09:26:53;14.60;55.50
11399;DHT22;5755;48.116;11.608;2024-03-02T09:29:19;15.20;40.00
11399;DHT22;5755;48.116;11.608;2024-03-02T09:31:46;16.40;33.70
11399;DHT22;5755;48.116;11.608;2024-03-02T09:34:15;17.00;29.60
11399;DHT22;5755;48.116;11.608;2024-03-02T09:36:42;17.20;28.20
11399;DHT22;5755;48.116;11.608;2024-03-02T09:39:09;17.80;23.50
11399;DHT22;5755;48.116;11.608;2024-03-02T09:41:36;16.80;23.50
11399;DHT22;5755;48.116;11.608;2024-03-02T09:44:05;16.60;25.00
11399;DHT22;5755;48.116;11.608;2024-03-02T09:46:32;16.40;25.40
11399;DHT22;5755;48.116;11.608;2024-03-02T09:48:59;16.70;26.70
11399;DHT22;5755;48.116;11.608;2024-03-02T09:51:26;17.60;22.20
11399;DHT22;5755;48.116;11.608;2024-03-02T09:53:55;17.70;20.30
11399;DHT22;5755;48.116;11.608;2024-03-02T09:56:22;18.20;19.80
11399;DHT22;5755;48.116;11.608;2024-03-02T09:58:49;18.10;19.50
11399;DHT22;5755;48.116;11.608;2024-03-02T10:01:17;18.30;19.20
11399;DHT22;5755;48.116;11.608;2024-03-02T10:03:44;17.60;20.70
11399;DHT22;5755;48.116;11.608;2024-03-02T10:06:19;17.50;21.60
11399;DHT22;5755;48.116;11.608;2024-03-02T10:08:46;16.90;23.50
11399;DHT22;5755;48.116;11.608;2024-03-02T10:11:25;17.20;24.50
11399;DHT22;5755;48.116;11.608;2024-03-02T10:14:04;18.20;21.00
11399;DHT22;5755;48.116;11.608;2024-03-02T10:16:35;18.00;18.00
11399;DHT22;5755;48.116;11.608;2024-03-02T10:19:16;17.70;20.00
11399;DHT22;5755;48.116;11.608;2024-03-02T10:21:43;17.90;20.30
11399;DHT22;5755;48.116;11.608;2024-03-02T10:24:10;18.10;19.60
11399;DHT22;5755;48.116;11.608;2024-03-02T10:26:38;18.30;19.20
11399;DHT22;5755;48.116;11.608;2024-03-02T10:29:17;18.60;18.10
11399;DHT22;5755;48.116;11.608;2024-03-02T10:35:33;18.50;17.70
11399;DHT22;5755;48.116;11.608;2024-03-02T10:38:03;18.50;18.60
11399;DHT22;5755;48.116;11.608;2024-03-02T10:40:31;18.60;18.20
11399;DHT22;5755;48.116;11.608;2024-03-02T10:42:59;17.90;18.90
11399;DHT22;5755;48.116;11.608;2024-03-02T10:45:40;17.50;22.20
11399;DHT22;5755;48.116;11.608;2024-03-02T10:51:32;18.50;19.30
11399;DHT22;5755;48.116;11.608;2024-03-02T10:53:59;18.20;19.20
11399;DHT22;5755;48.116;11.608;2024-03-02T10:56:29;18.00;20.40
11399;DHT22;5755;48.116;11.608;2024-03-02T10:59:02;17.70;20.30
11399;DHT22;5755;48.116;11.608;2024-03-02T11:01:32;17.50;21.70
11399;DHT22;5755;48.116;11.608;2024-03-02T11:03:59;17.40;23.10
11399;DHT22;5755;48.116;11.608;2024-03-02T11:06:31;17.50;22.20
11399;DHT22;5755;48.116;11.608;2024-03-02T11:12:25;17.50;21.40
11399;DHT22;5755;48.116;11.608;2024-03-02T11:14:53;17.20;23.30
11399;DHT22;5755;48.116;11.608;2024-03-02T11:17:22;17.20;22.20
11399;DHT22;5755;48.116;11.608;2024-03-02T11:19:49;17.30;21.30
11399;DHT22;5755;48.116;11.608;2024-03-02T11:22:19;16.70;24.60
11399;DHT22;5755;48.116;11.608;2024-03-02T11:24:50;16.20;24.00
11399;DHT22;5755;48.116;11.608;2024-03-02T11:48:54;15.20;28.00
11399;DHT22;5755;48.116;11.608;2024-03-02T11:51:22;15.00;27.90
11399;DHT22;5755;48.116;11.608;2024-03-02T11:54:06;14.90;27.80
11399;DHT22;5755;48.116;11.608;2024-03-02T12:10:17;14.40;30.50
11399;DHT22;5755;48.116;11.608;2024-03-02T12:16:08;14.20;30.90
11399;DHT22;5755;48.116;11.608;2024-03-02T12:18:35;14.40;32.30
11399;DHT22;5755;48.116;11.608;2024-03-02T12:21:02;14.30;32.10
11399;DHT22;5755;48.116;11.608;2024-03-02T12:29:39;14.60;31.80
11399;DHT22;5755;48.116;11.608;2024-03-02T12:32:07;14.60;31.90
11399;DHT22;5755;48.116;11.608;2024-03-02T12:41:15;14.20;35.70
11399;DHT22;5755;48.116;11.608;2024-03-02T13:37:30;13.90;42.50
11399;DHT22;5755;48.116;11.608;2024-03-02T13:40:07;13.90;43.70
11399;DHT22;5755;48.116;11.608;2024-03-02T17:46:36;10.00;89.40
11399;DHT22;5755;48.116;11.608;2024-03-02T17:52:57;9.80;91.40
11399;DHT22;5755;48.116;11.608;2024-03-02T17:55:25;9.70;92.20
11399;DHT22;5755;48.116;11.608;2024-03-02T18:15:53;9.50;93.60
11399;DHT22;5755;48.116;11.608;2024-03-02T18:22:10;9.40;94.30
11399;DHT22;5755;48.116;11.608;2024-03-02T18:27:59;9.30;94.90
11399;DHT22;5755;48.116;11.608;2024-03-02T18:30:26;9.20;94.90
11399;DHT22;5755;48.116;11.608;2024-03-02T18:32:55;9.10;95.00
11399;DHT22;5755;48.116;11.608;2024-03-02T18:35:22;9.00;95.60
11399;DHT22;5755;48.116;11.608;2024-03-02T18:37:48;9.00;95.90
11399;DHT22;5755;48.116;11.608;2024-03-02T18:40:15;8.90;95.90
11399;DHT22;5755;48.116;11.608;2024-03-02T18:42:42;8.90;96.00
11399;DHT22;5755;48.116;11.608;2024-03-02T18:45:09;8.80;96.20
11399;DHT22;5755;48.116;11.608;2024-03-02T18:47:36;8.80;96.40
11399;DHT22;5755;48.116;11.608;2024-03-02T18:50:06;8.70;96.70
11399;DHT22;5755;48.116;11.608;2024-03-02T18:52:35;8.70;96.80
11399;DHT22;5755;48.116;11.608;2024-03-02T18:55:02;8.60;97.00
11399;DHT22;5755;48.116;11.608;2024-03-02T18:57:30;8.50;97.20
11399;DHT22;5755;48.116;11.608;2024-03-02T18:59:56;8.50;97.50
11399;DHT22;5755;48.116;11.608;2024-03-02T19:02:23;8.40;97.90
11399;DHT22;5755;48.116;11.608;2024-03-02T19:04:50;8.30;98.00
11399;DHT22;5755;48.116;11.608;2024-03-02T19:07:19;8.30;98.40
11399;DHT22;5755;48.116;11.608;2024-03-02T19:09:46;8.30;98.70
11399;DHT22;5755;48.116;11.608;2024-03-02T19:12:13;8.30;98.90
11399;DHT22;5755;48.116;11.608;2024-03-02T19:14:40;8.30;98.60
11399;DHT22;5755;48.116;11.608;2024-03-02T19:17:07;8.20;98.70
11399;DHT22;5755;48.116;11.608;2024-03-02T19:19:33;8.20;98.90
11399;DHT22;5755;48.116;11.608;2024-03-02T19:22:00;8.10;99.00
11399;DHT22;5755;48.116;11.608;2024-03-02T19:24:35;8.10;99.40
11399;DHT22;5755;48.116;11.608;2024-03-02T19:27:02;8.10;99.40
11399;DHT22;5755;48.116;11.608;2024-03-02T19:29:29;8.10;99.30
11399;DHT22;5755;48.116;11.608;2024-03-02T19:31:56;8.10;99.70
11399;DHT22;5755;48.116;11.608;2024-03-02T19:34:23;8.00;99.90
11399;DHT22;5755;48.116;11.608;2024-03-02T19:36:50;8.00;99.90
11399;DHT22;5755;48.116;11.608;2024-03-02T19:39:17;8.10;99.90
11399;DHT22;5755;48.116;11.608;2024-03-02T19:41:53;8.10;99.90
11399;DHT22;5755;48.116;11.608;2024-03-02T19:44:20;8.10;99.90
11399;DHT22;5755;48.116;11.608;2024-03-02T19:46:48;8.00;99.90
11399;DHT22;5755;48.116;11.608;2024-03-02T19:49:15;8.10;99.90
11399;DHT22;5755;48.116;11.608;2024-03-02T19:51:43;8.10;99.90
11399;DHT22;5755;48.116;11.608;2024-03-02T19:54:11;8.00;99.90
11399;DHT22;5755;48.116;11.608;2024-03-02T19:56:37;8.00;99.90
11399;DHT22;5755;48.116;11.608;2024-03-02T19:59:06;8.00;99.90
11399;DHT22;5755;48.116;11.608;2024-03-02T20:01:35;7.90;99.90
11399;DHT22;5755;48.116;11.608;2024-03-02T20:04:03;7.90;99.90
11399;DHT22;5755;48.116;11.608;2024-03-02T20:06:35;7.80;99.90
11399;DHT22;5755;48.116;11.608;2024-03-02T20:09:02;7.70;99.90
11399;DHT22;5755;48.116;11.608;2024-03-02T20:11:30;7.70;99.90
11399;DHT22;5755;48.116;11.608;2024-03-02T20:13:58;7.70;99.90
11399;DHT22;5755;48.116;11.608;2024-03-02T20:16:27;7.70;99.90
11399;DHT22;5755;48.116;11.608;2024-03-02T20:18:53;7.60;99.90
11399;DHT22;5755;48.116;11.608;2024-03-02T20:21:20;7.50;99.90
11399;DHT22;5755;48.116;11.608;2024-03-02T20:23:48;7.50;99.90
11399;DHT22;5755;48.116;11.608;2024-03-02T20:26:15;7.50;99.90
11399;DHT22;5755;48.116;11.608;2024-03-02T20:28:43;7.50;99.90
11399;DHT22;5755;48.116;11.608;2024-03-02T20:31:10;7.50;99.90
11399;DHT22;5755;48.116;11.608;2024-03-02T20:33:40;7.50;99.90
11399;DHT22;5755;48.116;11.608;2024-03-02T20:36:11;7.50;99.90
11399;DHT22;5755;48.116;11.608;2024-03-02T20:38:39;7.40;99.90
11399;DHT22;5755;48.116;11.608;2024-03-02T20:41:06;7.40;99.90
11399;DHT22;5755;48.116;11.608;2024-03-02T20:43:39;7.40;99.90
11399;DHT22;5755;48.116;11.608;2024-03-02T20:46:06;7.40;99.90
11399;DHT22;5755;48.116;11.608;2024-03-02T20:48:33;7.30;99.90
11399;DHT22;5755;48.116;11.608;2024-03-02T20:51:02;7.20;99.90
11399;DHT22;5755;48.116;11.608;2024-03-02T20:53:29;7.10;99.90
11399;DHT22;5755;48.116;11.608;2024-03-02T20:55:56;7.10;99.90
11399;DHT22;5755;48.116;11.608;2024-03-02T20:58:23;7.10;99.90
11399;DHT22;5755;48.116;11.608;2024-03-02T21:00:50;7.10;99.90
11399;DHT22;5755;48.116;11.608;2024-03-02T21:03:17;7.00;99.90
11399;DHT22;5755;48.116;11.608;2024-03-02T21:05:45;7.10;99.90
11399;DHT22;5755;48.116;11.608;2024-03-02T21:08:14;7.10;99.90
11399;DHT22;5755;48.116;11.608;2024-03-02T21:10:41;7.10;99.90
11399;DHT22;5755;48.116;11.608;2024-03-02T21:13:09;7.10;99.90
11399;DHT22;5755;48.116;11.608;2024-03-02T21:15:36;7.00;99.90
11399;DHT22;5755;48.116;11.608;2024-03-02T21:18:04;7.00;99.90
11399;DHT22;5755;48.116;11.608;2024-03-02T21:20:30;7.00;99.90
11399;DHT22;5755;48.116;11.608;2024-03-02T21:22:57;6.90;99.90
11399;DHT22;5755;48.116;11.608;2024-03-02T21:25:26;6.80;99.90
11399;DHT22;5755;48.116;11.608;2024-03-02T21:27:52;6.70;99.90
11399;DHT22;5755;48.116;11.608;2024-03-02T21:30:19;6.60;99.90
11399;DHT22;5755;48.116;11.608;2024-03-02T21:32:47;6.60;99.90
11399;DHT22;5755;48.116;11.608;2024-03-02T21:35:14;6.50;99.90
11399;DHT22;5755;48.116;11.608;2024-03-02T21:37:42;6.50;99.90
11399;DHT22;5755;48.116;11.608;2024-03-02T21:40:10;6.60;99.90
11399;DHT22;5755;48.116;11.608;2024-03-02T21:42:39;6.60;99.90
11399;DHT22;5755;48.116;11.608;2024-03-02T21:45:07;6.60;99.90
11399;DHT22;5755;48.116;11.608;2024-03-02T21:47:33;6.60;99.90
11399;DHT22;5755;48.116;11.608;2024-03-02T21:50:00;6.50;99.90
11399;DHT22;5755;48.116;11.608;2024-03-02T21:52:27;6.40;99.90
11399;DHT22;5755;48.116;11.608;2024-03-02T21:54:54;6.50;99.90
11399;DHT22;5755;48.116;11.608;2024-03-02T21:57:21;6.50;99.90
11399;DHT22;5755;48.116;11.608;2024-03-02T21:59:51;6.50;99.90
11399;DHT22;5755;48.116;11.608;2024-03-02T22:02:18;6.50;99.90
11399;DHT22;5755;48.116;11.608;2024-03-02T22:04:45;6.40;99.90
11399;DHT22;5755;48.116;11.608;2024-03-02T22:07:12;6.30;99.90
11399;DHT22;5755;48.116;11.608;2024-03-02T22:09:39;6.30;99.90
11399;DHT22;5755;48.116;11.608;2024-03-02T22:12:06;6.20;99.90
11399;DHT22;5755;48.116;11.608;2024-03-02T22:14:33;6.20;99.90
11399;DHT22;5755;48.116;11.608;2024-03-02T22:17:01;6.20;99.90
11399;DHT22;5755;48.116;11.608;2024-03-02T22:19:28;6.10;99.90
11399;DHT22;5755;48.116;11.608;2024-03-02T22:21:55;6.00;99.90
11399;DHT22;5755;48.116;11.608;2024-03-02T22:24:25;5.90;99.90
11399;DHT22;5755;48.116;11.608;2024-03-02T22:26:53;5.80;99.90
11399;DHT22;5755;48.116;11.608;2024-03-02T22:29:42;5.80;99.90
11399;DHT22;5755;48.116;11.608;2024-03-02T22:32:25;5.70;99.90
11399;DHT22;5755;48.116;11.608;2024-03-02T22:34:52;5.80;99.90
11399;DHT22;5755;48.116;11.608;2024-03-02T22:37:19;5.70;99.90
11399;DHT22;5755;48.116;11.608;2024-03-02T22:39:45;5.60;99.90
11399;DHT22;5755;48.116;11.608;2024-03-02T22:42:12;5.50;99.90
11399;DHT22;5755;48.116;11.608;2024-03-02T22:44:39;5.40;99.90
11399;DHT22;5755;48.116;11.608;2024-03-02T22:47:06;5.40;99.90
11399;DHT22;5755;48.116;11.608;2024-03-02T22:49:34;5.50;99.90
11399;DHT22;5755;48.116;11.608;2024-03-02T22:52:01;5.60;99.90
11399;DHT22;5755;48.116;11.608;2024-03-02T22:54:28;5.50;99.90
11399;DHT22;5755;48.116;11.608;2024-03-02T22:56:55;5.40;99.90
11399;DHT22;5755;48.116;11.608;2024-03-02T22:59:22;5.30;99.90
11399;DHT22;5755;48.116;11.608;2024-03-02T23:01:49;5.30;99.90
11399;DHT22;5755;48.116;11.608;2024-03-02T23:04:16;5.30;99.90
11399;DHT22;5755;48.116;11.608;2024-03-02T23:06:44;5.30;99.90
11399;DHT22;5755;48.116;11.608;2024-03-02T23:09:11;5.40;99.90
11399;DHT22;5755;48.116;11.608;2024-03-02T23:11:38;5.40;99.90
11399;DHT22;5755;48.116;11.608;2024-03-02T23:14:05;5.40;99.90
11399;DHT22;5755;48.116;11.608;2024-03-02T23:16:33;5.40;99.90
11399;DHT22;5755;48.116;11.608;2024-03-02T23:19:02;5.50;99.90
11399;DHT22;5755;48.116;11.608;2024-03-02T23:21:29;5.50;99.90
11399;DHT22;5755;48.116;11.608;2024-03-02T23:23:57;5.40;99.90
11399;DHT22;5755;48.116;11.608;2024-03-02T23:26:24;5.40;99.90
11399;DHT22;5755;48.116;11.608;2024-03-02T23:28:51;5.40;99.90
11399;DHT22;5755;48.116;11.608;2024-03-02T23:31:18;5.40;99.90
11399;DHT22;5755;48.116;11.608;2024-03-02T23:33:46;5.50;99.90
11399;DHT22;5755;48.116;11.608;2024-03-02T23:36:13;5.60;99.90
11399;DHT22;5755;48.116;11.608;2024-03-02T23:38:40;5.60;99.90
11399;DHT22;5755;48.116;11.608;2024-03-02T23:41:08;5.60;99.90
11399;DHT22;5755;48.116;11.608;2024-03-02T23:43:35;5.50;99.90
11399;DHT22;5755;48.116;11.608;2024-03-02T23:46:04;5.50;99.90
11399;DHT22;5755;48.116;11.608;2024-03-02T23:48:31;5.30;99.90
11399;DHT22;5755;48.116;11.608;2024-03-02T23:50:58;5.30;99.90
11399;DHT22;5755;48.116;11.608;2024-03-02T23:53:25;5.20;99.90
11399;DHT22;5755;48.116;11.608;2024-03-02T23:55:52;5.20;99.90
11399;DHT22;5755;48.116;11.608;2024-03-02T23:58:20;5.20;99.90
